sensor_id;sensor_type;location;lat;lon;timestamp;P1;durP1;ratioP1;P2;durP2;ratioP2
23206;SDS011;11773;52.570;13.052;2023-01-28T00:01:12;0.30;;;0.30;;
23206;SDS011;11773;52.570;13.052;2023-01-28T00:03:44;0.27;;;0.27;;
23206;SDS011;11773;52.570;13.052;2023-01-28T00:06:19;0.23;;;0.23;;
23206;SDS011;11773;52.570;13.052;2023-01-28T00:08:48;0.40;;;0.40;;
23206;SDS011;11773;52.570;13.052;2023-01-28T00:11:17;0.20;;;0.20;;
23206;SDS011;11773;52.570;13.052;2023-01-28T00:13:51;0.40;;;0.40;;
23206;SDS011;11773;52.570;13.052;2023-01-28T00:16:22;0.30;;;0.30;;
23206;SDS011;11773;52.570;13.052;2023-01-28T00:18:53;0.30;;;0.30;;
23206;SDS011;11773;52.570;13.052;2023-01-28T00:21:23;0.37;;;0.37;;
23206;SDS011;11773;52.570;13.052;2023-01-28T00:23:53;0.20;;;0.20;;
23206;SDS011;11773;52.570;13.052;2023-01-28T00:26:24;0.33;;;0.20;;
23206;SDS011;11773;52.570;13.052;2023-01-28T00:28:54;0.27;;;0.27;;
23206;SDS011;11773;52.570;13.052;2023-01-28T00:31:24;0.40;;;0.40;;
23206;SDS011;11773;52.570;13.052;2023-01-28T00:33:55;0.40;;;0.40;;
23206;SDS011;11773;52.570;13.052;2023-01-28T00:36:25;0.70;;;0.60;;
23206;SDS011;11773;52.570;13.052;2023-01-28T00:38:56;0.40;;;0.40;;
23206;SDS011;11773;52.570;13.052;2023-01-28T00:41:27;0.50;;;0.40;;
23206;SDS011;11773;52.570;13.052;2023-01-28T00:43:57;0.40;;;0.40;;
23206;SDS011;11773;52.570;13.052;2023-01-28T00:46:27;0.77;;;0.53;;
23206;SDS011;11773;52.570;13.052;2023-01-28T00:48:56;0.33;;;0.33;;
23206;SDS011;11773;52.570;13.052;2023-01-28T00:51:26;1.50;;;0.40;;
23206;SDS011;11773;52.570;13.052;2023-01-28T00:53:55;0.33;;;0.33;;
23206;SDS011;11773;52.570;13.052;2023-01-28T00:56:25;0.70;;;0.53;;
23206;SDS011;11773;52.570;13.052;2023-01-28T00:58:55;0.40;;;0.40;;
23206;SDS011;11773;52.570;13.052;2023-01-28T01:01:25;0.33;;;0.33;;
23206;SDS011;11773;52.570;13.052;2023-01-28T01:03:55;0.50;;;0.50;;
23206;SDS011;11773;52.570;13.052;2023-01-28T01:06:38;0.40;;;0.40;;
23206;SDS011;11773;52.570;13.052;2023-01-28T01:09:02;0.33;;;0.33;;
23206;SDS011;11773;52.570;13.052;2023-01-28T01:11:37;0.77;;;0.53;;
23206;SDS011;11773;52.570;13.052;2023-01-28T01:14:08;0.40;;;0.40;;
23206;SDS011;11773;52.570;13.052;2023-01-28T01:16:38;0.30;;;0.30;;
23206;SDS011;11773;52.570;13.052;2023-01-28T01:19:07;0.50;;;0.50;;
23206;SDS011;11773;52.570;13.052;2023-01-28T01:21:37;0.50;;;0.50;;
23206;SDS011;11773;52.570;13.052;2023-01-28T01:24:06;0.40;;;0.40;;
23206;SDS011;11773;52.570;13.052;2023-01-28T01:26:36;0.60;;;0.60;;
23206;SDS011;11773;52.570;13.052;2023-01-28T01:29:05;0.47;;;0.47;;
23206;SDS011;11773;52.570;13.052;2023-01-28T01:31:35;0.33;;;0.30;;
23206;SDS011;11773;52.570;13.052;2023-01-28T01:34:05;0.37;;;0.37;;
23206;SDS011;11773;52.570;13.052;2023-01-28T01:36:36;0.30;;;0.30;;
23206;SDS011;11773;52.570;13.052;2023-01-28T01:39:06;0.60;;;0.60;;
23206;SDS011;11773;52.570;13.052;2023-01-28T01:41:40;0.30;;;0.30;;
23206;SDS011;11773;52.570;13.052;2023-01-28T01:47:34;0.40;;;0.30;;
23206;SDS011;11773;52.570;13.052;2023-01-28T01:50:15;0.50;;;0.43;;
23206;SDS011;11773;52.570;13.052;2023-01-28T01:52:54;0.50;;;0.50;;
23206;SDS011;11773;52.570;13.052;2023-01-28T01:55:26;0.53;;;0.50;;
23206;SDS011;11773;52.570;13.052;2023-01-28T01:58:04;0.50;;;0.50;;
23206;SDS011;11773;52.570;13.052;2023-01-28T02:00:36;0.47;;;0.47;;
23206;SDS011;11773;52.570;13.052;2023-01-28T02:03:07;0.63;;;0.40;;
23206;SDS011;11773;52.570;13.052;2023-01-28T02:05:38;0.47;;;0.43;;
23206;SDS011;11773;52.570;13.052;2023-01-28T02:08:08;0.37;;;0.37;;
23206;SDS011;11773;52.570;13.052;2023-01-28T02:10:58;0.30;;;0.30;;
23206;SDS011;11773;52.570;13.052;2023-01-28T02:13:25;0.43;;;0.43;;
23206;SDS011;11773;52.570;13.052;2023-01-28T02:15:58;0.77;;;0.60;;
23206;SDS011;11773;52.570;13.052;2023-01-28T02:18:30;0.50;;;0.50;;
23206;SDS011;11773;52.570;13.052;2023-01-28T02:29:57;0.50;;;0.50;;
23206;SDS011;11773;52.570;13.052;2023-01-28T02:32:54;0.53;;;0.50;;
23206;SDS011;11773;52.570;13.052;2023-01-28T02:35:29;0.40;;;0.40;;
23206;SDS011;11773;52.570;13.052;2023-01-28T02:38:15;0.30;;;0.30;;
23206;SDS011;11773;52.570;13.052;2023-01-28T02:41:02;0.50;;;0.50;;
23206;SDS011;11773;52.570;13.052;2023-01-28T02:43:40;0.50;;;0.50;;
23206;SDS011;11773;52.570;13.052;2023-01-28T02:49:27;0.30;;;0.30;;
23206;SDS011;11773;52.570;13.052;2023-01-28T02:52:19;0.40;;;0.40;;
23206;SDS011;11773;52.570;13.052;2023-01-28T02:55:44;0.37;;;0.37;;
23206;SDS011;11773;52.570;13.052;2023-01-28T03:04:18;0.50;;;0.50;;
23206;SDS011;11773;52.570;13.052;2023-01-28T03:06:59;0.30;;;0.30;;
23206;SDS011;11773;52.570;13.052;2023-01-28T03:09:33;0.40;;;0.40;;
23206;SDS011;11773;52.570;13.052;2023-01-28T03:12:07;0.50;;;0.50;;
23206;SDS011;11773;52.570;13.052;2023-01-28T03:15:14;0.30;;;0.30;;
23206;SDS011;11773;52.570;13.052;2023-01-28T03:18:15;0.40;;;0.40;;
23206;SDS011;11773;52.570;13.052;2023-01-28T03:21:24;0.50;;;0.50;;
23206;SDS011;11773;52.570;13.052;2023-01-28T03:24:25;0.47;;;0.47;;
23206;SDS011;11773;52.570;13.052;2023-01-28T03:27:29;0.50;;;0.40;;
23206;SDS011;11773;52.570;13.052;2023-01-28T03:30:43;0.40;;;0.40;;
23206;SDS011;11773;52.570;13.052;2023-01-28T03:33:36;0.40;;;0.40;;
23206;SDS011;11773;52.570;13.052;2023-01-28T03:36:24;0.40;;;0.40;;
23206;SDS011;11773;52.570;13.052;2023-01-28T03:39:12;0.37;;;0.37;;
23206;SDS011;11773;52.570;13.052;2023-01-28T03:41:42;0.30;;;0.30;;
23206;SDS011;11773;52.570;13.052;2023-01-28T03:44:31;0.50;;;0.50;;
23206;SDS011;11773;52.570;13.052;2023-01-28T03:47:20;0.20;;;0.20;;
23206;SDS011;11773;52.570;13.052;2023-01-28T03:49:54;0.57;;;0.50;;
23206;SDS011;11773;52.570;13.052;2023-01-28T03:52:29;0.50;;;0.50;;
23206;SDS011;11773;52.570;13.052;2023-01-28T03:55:00;0.50;;;0.47;;
23206;SDS011;11773;52.570;13.052;2023-01-28T03:57:31;0.50;;;0.50;;
23206;SDS011;11773;52.570;13.052;2023-01-28T04:00:00;0.30;;;0.30;;
23206;SDS011;11773;52.570;13.052;2023-01-28T04:02:30;0.30;;;0.30;;
23206;SDS011;11773;52.570;13.052;2023-01-28T04:05:01;0.40;;;0.40;;
23206;SDS011;11773;52.570;13.052;2023-01-28T04:07:32;0.37;;;0.37;;
23206;SDS011;11773;52.570;13.052;2023-01-28T04:10:04;1.10;;;0.73;;
23206;SDS011;11773;52.570;13.052;2023-01-28T04:12:34;0.53;;;0.53;;
23206;SDS011;11773;52.570;13.052;2023-01-28T04:15:05;0.53;;;0.40;;
23206;SDS011;11773;52.570;13.052;2023-01-28T04:17:37;0.53;;;0.53;;
23206;SDS011;11773;52.570;13.052;2023-01-28T04:20:07;0.30;;;0.30;;
23206;SDS011;11773;52.570;13.052;2023-01-28T04:22:38;0.30;;;0.30;;
23206;SDS011;11773;52.570;13.052;2023-01-28T04:25:08;0.40;;;0.40;;
23206;SDS011;11773;52.570;13.052;2023-01-28T04:27:38;0.30;;;0.30;;
23206;SDS011;11773;52.570;13.052;2023-01-28T04:30:09;0.53;;;0.53;;
23206;SDS011;11773;52.570;13.052;2023-01-28T04:32:38;0.77;;;0.60;;
23206;SDS011;11773;52.570;13.052;2023-01-28T04:35:08;0.50;;;0.50;;
23206;SDS011;11773;52.570;13.052;2023-01-28T04:37:40;0.40;;;0.40;;
23206;SDS011;11773;52.570;13.052;2023-01-28T04:40:09;0.40;;;0.40;;
23206;SDS011;11773;52.570;13.052;2023-01-28T04:42:40;0.43;;;0.43;;
23206;SDS011;11773;52.570;13.052;2023-01-28T04:45:09;0.30;;;0.30;;
23206;SDS011;11773;52.570;13.052;2023-01-28T04:47:40;0.50;;;0.50;;
23206;SDS011;11773;52.570;13.052;2023-01-28T04:50:10;0.70;;;0.70;;
23206;SDS011;11773;52.570;13.052;2023-01-28T04:52:40;0.40;;;0.40;;
23206;SDS011;11773;52.570;13.052;2023-01-28T04:55:09;0.60;;;0.60;;
23206;SDS011;11773;52.570;13.052;2023-01-28T04:57:39;0.67;;;0.67;;
23206;SDS011;11773;52.570;13.052;2023-01-28T05:00:09;0.53;;;0.53;;
23206;SDS011;11773;52.570;13.052;2023-01-28T05:02:39;0.63;;;0.43;;
23206;SDS011;11773;52.570;13.052;2023-01-28T05:05:08;0.40;;;0.40;;
23206;SDS011;11773;52.570;13.052;2023-01-28T05:07:39;0.40;;;0.40;;
23206;SDS011;11773;52.570;13.052;2023-01-28T05:10:08;0.57;;;0.57;;
23206;SDS011;11773;52.570;13.052;2023-01-28T05:12:38;0.50;;;0.43;;
23206;SDS011;11773;52.570;13.052;2023-01-28T05:15:07;0.33;;;0.33;;
23206;SDS011;11773;52.570;13.052;2023-01-28T05:17:37;0.47;;;0.40;;
23206;SDS011;11773;52.570;13.052;2023-01-28T05:20:07;0.40;;;0.40;;
23206;SDS011;11773;52.570;13.052;2023-01-28T05:22:39;0.40;;;0.40;;
23206;SDS011;11773;52.570;13.052;2023-01-28T05:25:10;0.57;;;0.50;;
23206;SDS011;11773;52.570;13.052;2023-01-28T05:27:39;0.40;;;0.40;;
23206;SDS011;11773;52.570;13.052;2023-01-28T05:30:09;0.60;;;0.60;;
23206;SDS011;11773;52.570;13.052;2023-01-28T05:32:39;0.93;;;0.90;;
23206;SDS011;11773;52.570;13.052;2023-01-28T05:35:09;0.70;;;0.70;;
23206;SDS011;11773;52.570;13.052;2023-01-28T05:37:39;0.40;;;0.40;;
23206;SDS011;11773;52.570;13.052;2023-01-28T05:40:09;0.70;;;0.70;;
23206;SDS011;11773;52.570;13.052;2023-01-28T05:42:40;0.50;;;0.50;;
23206;SDS011;11773;52.570;13.052;2023-01-28T05:45:09;0.87;;;0.80;;
23206;SDS011;11773;52.570;13.052;2023-01-28T05:47:39;0.83;;;0.83;;
23206;SDS011;11773;52.570;13.052;2023-01-28T05:50:11;0.80;;;0.70;;
23206;SDS011;11773;52.570;13.052;2023-01-28T05:52:42;0.70;;;0.70;;
23206;SDS011;11773;52.570;13.052;2023-01-28T05:55:12;0.63;;;0.63;;
23206;SDS011;11773;52.570;13.052;2023-01-28T05:57:41;0.60;;;0.60;;
23206;SDS011;11773;52.570;13.052;2023-01-28T06:00:11;0.60;;;0.60;;
23206;SDS011;11773;52.570;13.052;2023-01-28T06:02:42;0.50;;;0.50;;
23206;SDS011;11773;52.570;13.052;2023-01-28T06:05:12;0.50;;;0.50;;
23206;SDS011;11773;52.570;13.052;2023-01-28T06:07:45;0.50;;;0.50;;
23206;SDS011;11773;52.570;13.052;2023-01-28T06:10:15;1.07;;;0.97;;
23206;SDS011;11773;52.570;13.052;2023-01-28T06:12:45;0.50;;;0.50;;
23206;SDS011;11773;52.570;13.052;2023-01-28T06:15:14;0.60;;;0.60;;
23206;SDS011;11773;52.570;13.052;2023-01-28T06:17:44;0.60;;;0.60;;
23206;SDS011;11773;52.570;13.052;2023-01-28T06:20:13;0.60;;;0.60;;
23206;SDS011;11773;52.570;13.052;2023-01-28T06:22:43;0.50;;;0.50;;
23206;SDS011;11773;52.570;13.052;2023-01-28T06:25:13;0.80;;;0.70;;
23206;SDS011;11773;52.570;13.052;2023-01-28T06:27:42;0.60;;;0.60;;
23206;SDS011;11773;52.570;13.052;2023-01-28T06:30:12;0.80;;;0.73;;
23206;SDS011;11773;52.570;13.052;2023-01-28T06:32:42;0.40;;;0.40;;
23206;SDS011;11773;52.570;13.052;2023-01-28T06:35:11;0.50;;;0.43;;
23206;SDS011;11773;52.570;13.052;2023-01-28T06:37:41;0.40;;;0.40;;
23206;SDS011;11773;52.570;13.052;2023-01-28T06:40:11;0.37;;;0.37;;
23206;SDS011;11773;52.570;13.052;2023-01-28T06:42:41;0.47;;;0.47;;
23206;SDS011;11773;52.570;13.052;2023-01-28T06:45:10;0.40;;;0.40;;
23206;SDS011;11773;52.570;13.052;2023-01-28T06:47:40;0.50;;;0.50;;
23206;SDS011;11773;52.570;13.052;2023-01-28T06:50:10;0.50;;;0.50;;
23206;SDS011;11773;52.570;13.052;2023-01-28T06:52:40;0.40;;;0.40;;
23206;SDS011;11773;52.570;13.052;2023-01-28T06:55:09;0.50;;;0.50;;
23206;SDS011;11773;52.570;13.052;2023-01-28T06:57:39;0.50;;;0.40;;
23206;SDS011;11773;52.570;13.052;2023-01-28T07:00:11;0.50;;;0.40;;
23206;SDS011;11773;52.570;13.052;2023-01-28T07:02:43;0.70;;;0.40;;
23206;SDS011;11773;52.570;13.052;2023-01-28T07:05:12;0.40;;;0.40;;
23206;SDS011;11773;52.570;13.052;2023-01-28T07:07:42;0.30;;;0.30;;
23206;SDS011;11773;52.570;13.052;2023-01-28T07:10:12;0.27;;;0.27;;
23206;SDS011;11773;52.570;13.052;2023-01-28T07:12:42;0.50;;;0.50;;
23206;SDS011;11773;52.570;13.052;2023-01-28T07:15:12;0.40;;;0.40;;
23206;SDS011;11773;52.570;13.052;2023-01-28T07:17:41;0.40;;;0.40;;
23206;SDS011;11773;52.570;13.052;2023-01-28T07:20:12;0.90;;;0.70;;
23206;SDS011;11773;52.570;13.052;2023-01-28T07:22:43;0.43;;;0.43;;
23206;SDS011;11773;52.570;13.052;2023-01-28T07:25:14;0.53;;;0.53;;
23206;SDS011;11773;52.570;13.052;2023-01-28T07:27:50;0.87;;;0.87;;
23206;SDS011;11773;52.570;13.052;2023-01-28T07:30:20;1.57;;;1.43;;
23206;SDS011;11773;52.570;13.052;2023-01-28T07:32:58;1.20;;;1.10;;
23206;SDS011;11773;52.570;13.052;2023-01-28T07:35:25;1.00;;;0.90;;
23206;SDS011;11773;52.570;13.052;2023-01-28T07:37:56;0.77;;;0.70;;
23206;SDS011;11773;52.570;13.052;2023-01-28T07:40:28;0.80;;;0.80;;
23206;SDS011;11773;52.570;13.052;2023-01-28T07:42:57;0.57;;;0.57;;
23206;SDS011;11773;52.570;13.052;2023-01-28T07:45:27;0.60;;;0.60;;
23206;SDS011;11773;52.570;13.052;2023-01-28T07:48:03;0.77;;;0.73;;
23206;SDS011;11773;52.570;13.052;2023-01-28T07:50:33;0.53;;;0.53;;
23206;SDS011;11773;52.570;13.052;2023-01-28T07:53:04;0.60;;;0.60;;
23206;SDS011;11773;52.570;13.052;2023-01-28T07:55:37;0.37;;;0.37;;
23206;SDS011;11773;52.570;13.052;2023-01-28T07:58:08;0.47;;;0.40;;
23206;SDS011;11773;52.570;13.052;2023-01-28T08:00:39;0.50;;;0.50;;
23206;SDS011;11773;52.570;13.052;2023-01-28T08:03:12;0.40;;;0.40;;
23206;SDS011;11773;52.570;13.052;2023-01-28T08:05:43;0.37;;;0.37;;
23206;SDS011;11773;52.570;13.052;2023-01-28T08:08:15;0.40;;;0.40;;
23206;SDS011;11773;52.570;13.052;2023-01-28T08:10:46;0.30;;;0.30;;
23206;SDS011;11773;52.570;13.052;2023-01-28T08:13:16;0.30;;;0.30;;
23206;SDS011;11773;52.570;13.052;2023-01-28T08:15:46;0.30;;;0.30;;
23206;SDS011;11773;52.570;13.052;2023-01-28T08:18:16;0.40;;;0.40;;
23206;SDS011;11773;52.570;13.052;2023-01-28T08:20:45;0.50;;;0.50;;
23206;SDS011;11773;52.570;13.052;2023-01-28T08:23:16;0.30;;;0.30;;
23206;SDS011;11773;52.570;13.052;2023-01-28T08:25:48;0.50;;;0.50;;
23206;SDS011;11773;52.570;13.052;2023-01-28T08:28:18;0.33;;;0.33;;
23206;SDS011;11773;52.570;13.052;2023-01-28T08:30:48;0.50;;;0.50;;
23206;SDS011;11773;52.570;13.052;2023-01-28T08:33:18;0.30;;;0.30;;
23206;SDS011;11773;52.570;13.052;2023-01-28T08:35:48;0.40;;;0.40;;
23206;SDS011;11773;52.570;13.052;2023-01-28T08:38:17;0.50;;;0.50;;
23206;SDS011;11773;52.570;13.052;2023-01-28T08:40:47;0.43;;;0.43;;
23206;SDS011;11773;52.570;13.052;2023-01-28T08:43:20;0.23;;;0.23;;
23206;SDS011;11773;52.570;13.052;2023-01-28T08:45:50;0.33;;;0.33;;
23206;SDS011;11773;52.570;13.052;2023-01-28T08:48:20;0.50;;;0.50;;
23206;SDS011;11773;52.570;13.052;2023-01-28T08:50:49;0.50;;;0.50;;
23206;SDS011;11773;52.570;13.052;2023-01-28T08:53:19;0.30;;;0.30;;
23206;SDS011;11773;52.570;13.052;2023-01-28T08:55:48;0.80;;;0.57;;
23206;SDS011;11773;52.570;13.052;2023-01-28T08:58:18;0.70;;;0.70;;
23206;SDS011;11773;52.570;13.052;2023-01-28T09:00:48;0.53;;;0.53;;
23206;SDS011;11773;52.570;13.052;2023-01-28T09:03:18;0.60;;;0.60;;
23206;SDS011;11773;52.570;13.052;2023-01-28T09:05:48;0.60;;;0.43;;
23206;SDS011;11773;52.570;13.052;2023-01-28T09:08:17;0.30;;;0.30;;
23206;SDS011;11773;52.570;13.052;2023-01-28T09:10:53;0.40;;;0.40;;
23206;SDS011;11773;52.570;13.052;2023-01-28T09:13:22;0.40;;;0.40;;
23206;SDS011;11773;52.570;13.052;2023-01-28T09:15:52;0.30;;;0.30;;
23206;SDS011;11773;52.570;13.052;2023-01-28T09:18:22;0.40;;;0.40;;
23206;SDS011;11773;52.570;13.052;2023-01-28T09:20:52;0.30;;;0.30;;
23206;SDS011;11773;52.570;13.052;2023-01-28T09:23:21;0.30;;;0.30;;
23206;SDS011;11773;52.570;13.052;2023-01-28T09:25:58;0.40;;;0.40;;
23206;SDS011;11773;52.570;13.052;2023-01-28T09:28:30;0.40;;;0.40;;
23206;SDS011;11773;52.570;13.052;2023-01-28T09:31:09;0.50;;;0.50;;
23206;SDS011;11773;52.570;13.052;2023-01-28T09:33:38;0.50;;;0.50;;
23206;SDS011;11773;52.570;13.052;2023-01-28T09:36:09;0.40;;;0.40;;
23206;SDS011;11773;52.570;13.052;2023-01-28T09:38:39;0.43;;;0.43;;
23206;SDS011;11773;52.570;13.052;2023-01-28T09:41:21;0.37;;;0.37;;
23206;SDS011;11773;52.570;13.052;2023-01-28T09:44:00;1.13;;;0.50;;
23206;SDS011;11773;52.570;13.052;2023-01-28T09:46:46;0.40;;;0.40;;
23206;SDS011;11773;52.570;13.052;2023-01-28T09:49:20;0.40;;;0.40;;
23206;SDS011;11773;52.570;13.052;2023-01-28T09:52:01;0.40;;;0.40;;
23206;SDS011;11773;52.570;13.052;2023-01-28T09:54:40;0.30;;;0.30;;
23206;SDS011;11773;52.570;13.052;2023-01-28T09:57:25;0.40;;;0.40;;
23206;SDS011;11773;52.570;13.052;2023-01-28T09:59:53;0.83;;;0.70;;
23206;SDS011;11773;52.570;13.052;2023-01-28T10:02:35;0.43;;;0.43;;
23206;SDS011;11773;52.570;13.052;2023-01-28T10:05:26;0.67;;;0.40;;
23206;SDS011;11773;52.570;13.052;2023-01-28T10:11:06;0.77;;;0.50;;
23206;SDS011;11773;52.570;13.052;2023-01-28T10:14:00;0.70;;;0.60;;
23206;SDS011;11773;52.570;13.052;2023-01-28T10:16:42;0.57;;;0.57;;
23206;SDS011;11773;52.570;13.052;2023-01-28T10:19:31;0.70;;;0.70;;
23206;SDS011;11773;52.570;13.052;2023-01-28T10:22:08;0.90;;;0.90;;
23206;SDS011;11773;52.570;13.052;2023-01-28T10:24:42;0.63;;;0.63;;
23206;SDS011;11773;52.570;13.052;2023-01-28T10:27:16;0.60;;;0.60;;
23206;SDS011;11773;52.570;13.052;2023-01-28T10:29:54;0.77;;;0.70;;
23206;SDS011;11773;52.570;13.052;2023-01-28T10:32:31;0.70;;;0.50;;
23206;SDS011;11773;52.570;13.052;2023-01-28T10:35:04;0.33;;;0.33;;
23206;SDS011;11773;52.570;13.052;2023-01-28T10:37:34;1.93;;;0.77;;
23206;SDS011;11773;52.570;13.052;2023-01-28T10:40:11;0.43;;;0.43;;
23206;SDS011;11773;52.570;13.052;2023-01-28T10:42:41;1.00;;;0.73;;
23206;SDS011;11773;52.570;13.052;2023-01-28T10:45:23;0.50;;;0.50;;
23206;SDS011;11773;52.570;13.052;2023-01-28T10:50:32;0.60;;;0.60;;
23206;SDS011;11773;52.570;13.052;2023-01-28T10:53:03;0.60;;;0.60;;
23206;SDS011;11773;52.570;13.052;2023-01-28T10:55:44;0.73;;;0.60;;
23206;SDS011;11773;52.570;13.052;2023-01-28T10:58:21;0.40;;;0.40;;
23206;SDS011;11773;52.570;13.052;2023-01-28T11:00:56;0.40;;;0.40;;
23206;SDS011;11773;52.570;13.052;2023-01-28T11:03:33;0.30;;;0.30;;
23206;SDS011;11773;52.570;13.052;2023-01-28T11:06:02;0.40;;;0.40;;
23206;SDS011;11773;52.570;13.052;2023-01-28T11:08:41;0.20;;;0.20;;
23206;SDS011;11773;52.570;13.052;2023-01-28T11:11:12;0.53;;;0.47;;
23206;SDS011;11773;52.570;13.052;2023-01-28T11:13:50;0.40;;;0.40;;
23206;SDS011;11773;52.570;13.052;2023-01-28T11:16:23;0.77;;;0.30;;
23206;SDS011;11773;52.570;13.052;2023-01-28T11:18:54;0.67;;;0.30;;
23206;SDS011;11773;52.570;13.052;2023-01-28T11:21:32;0.37;;;0.30;;
23206;SDS011;11773;52.570;13.052;2023-01-28T11:24:03;1.03;;;0.30;;
23206;SDS011;11773;52.570;13.052;2023-01-28T11:26:44;0.27;;;0.27;;
23206;SDS011;11773;52.570;13.052;2023-01-28T11:29:30;0.20;;;0.20;;
23206;SDS011;11773;52.570;13.052;2023-01-28T11:32:01;0.20;;;0.20;;
23206;SDS011;11773;52.570;13.052;2023-01-28T11:34:32;0.23;;;0.23;;
23206;SDS011;11773;52.570;13.052;2023-01-28T11:37:11;0.20;;;0.20;;
23206;SDS011;11773;52.570;13.052;2023-01-28T11:39:42;1.20;;;0.40;;
23206;SDS011;11773;52.570;13.052;2023-01-28T11:42:19;0.30;;;0.30;;
23206;SDS011;11773;52.570;13.052;2023-01-28T11:44:49;0.30;;;0.30;;
23206;SDS011;11773;52.570;13.052;2023-01-28T11:50:34;0.40;;;0.20;;
23206;SDS011;11773;52.570;13.052;2023-01-28T11:56:18;0.30;;;0.30;;
23206;SDS011;11773;52.570;13.052;2023-01-28T12:13:53;0.50;;;0.50;;
23206;SDS011;11773;52.570;13.052;2023-01-28T12:16:33;0.30;;;0.30;;
23206;SDS011;11773;52.570;13.052;2023-01-28T12:19:28;0.20;;;0.20;;
23206;SDS011;11773;52.570;13.052;2023-01-28T12:22:21;0.60;;;0.40;;
23206;SDS011;11773;52.570;13.052;2023-01-28T12:25:13;0.30;;;0.30;;
23206;SDS011;11773;52.570;13.052;2023-01-28T12:28:06;0.30;;;0.30;;
23206;SDS011;11773;52.570;13.052;2023-01-28T12:31:04;0.50;;;0.50;;
23206;SDS011;11773;52.570;13.052;2023-01-28T12:33:47;0.30;;;0.30;;
23206;SDS011;11773;52.570;13.052;2023-01-28T12:36:51;0.30;;;0.30;;
23206;SDS011;11773;52.570;13.052;2023-01-28T12:42:34;0.30;;;0.30;;
23206;SDS011;11773;52.570;13.052;2023-01-28T12:45:18;0.40;;;0.40;;
23206;SDS011;11773;52.570;13.052;2023-01-28T12:48:05;0.20;;;0.20;;
23206;SDS011;11773;52.570;13.052;2023-01-28T12:50:51;0.23;;;0.23;;
23206;SDS011;11773;52.570;13.052;2023-01-28T12:53:45;0.50;;;0.50;;
23206;SDS011;11773;52.570;13.052;2023-01-28T12:56:16;0.23;;;0.23;;
23206;SDS011;11773;52.570;13.052;2023-01-28T12:58:54;0.27;;;0.27;;
23206;SDS011;11773;52.570;13.052;2023-01-28T13:01:43;0.30;;;0.30;;
23206;SDS011;11773;52.570;13.052;2023-01-28T13:04:33;0.30;;;0.30;;
23206;SDS011;11773;52.570;13.052;2023-01-28T13:12:48;0.30;;;0.30;;
23206;SDS011;11773;52.570;13.052;2023-01-28T13:15:18;0.40;;;0.30;;
23206;SDS011;11773;52.570;13.052;2023-01-28T13:18:04;0.90;;;0.90;;
23206;SDS011;11773;52.570;13.052;2023-01-28T13:20:48;1.80;;;1.60;;
23206;SDS011;11773;52.570;13.052;2023-01-28T13:23:27;2.33;;;1.30;;
23206;SDS011;11773;52.570;13.052;2023-01-28T13:28:53;0.77;;;0.73;;
23206;SDS011;11773;52.570;13.052;2023-01-28T13:31:36;0.60;;;0.60;;
23206;SDS011;11773;52.570;13.052;2023-01-28T13:34:24;0.40;;;0.40;;
23206;SDS011;11773;52.570;13.052;2023-01-28T13:37:01;0.40;;;0.40;;
23206;SDS011;11773;52.570;13.052;2023-01-28T13:39:34;0.60;;;0.50;;
23206;SDS011;11773;52.570;13.052;2023-01-28T13:42:09;0.33;;;0.33;;
23206;SDS011;11773;52.570;13.052;2023-01-28T13:44:51;0.40;;;0.40;;
23206;SDS011;11773;52.570;13.052;2023-01-28T13:47:32;0.30;;;0.30;;
23206;SDS011;11773;52.570;13.052;2023-01-28T13:50:05;0.20;;;0.20;;
23206;SDS011;11773;52.570;13.052;2023-01-28T13:52:43;0.40;;;0.40;;
23206;SDS011;11773;52.570;13.052;2023-01-28T13:55:35;0.23;;;0.23;;
23206;SDS011;11773;52.570;13.052;2023-01-28T13:58:16;0.50;;;0.30;;
23206;SDS011;11773;52.570;13.052;2023-01-28T14:04:17;0.30;;;0.30;;
23206;SDS011;11773;52.570;13.052;2023-01-28T14:10:16;0.37;;;0.30;;
23206;SDS011;11773;52.570;13.052;2023-01-28T14:12:55;0.20;;;0.20;;
23206;SDS011;11773;52.570;13.052;2023-01-28T14:15:39;0.50;;;0.33;;
23206;SDS011;11773;52.570;13.052;2023-01-28T14:18:25;0.37;;;0.33;;
23206;SDS011;11773;52.570;13.052;2023-01-28T14:21:11;0.30;;;0.30;;
23206;SDS011;11773;52.570;13.052;2023-01-28T14:23:46;0.50;;;0.40;;
23206;SDS011;11773;52.570;13.052;2023-01-28T14:29:21;0.40;;;0.40;;
23206;SDS011;11773;52.570;13.052;2023-01-28T14:32:22;0.30;;;0.30;;
23206;SDS011;11773;52.570;13.052;2023-01-28T14:34:57;0.30;;;0.30;;
23206;SDS011;11773;52.570;13.052;2023-01-28T14:37:34;0.30;;;0.30;;
23206;SDS011;11773;52.570;13.052;2023-01-28T14:40:05;0.20;;;0.20;;
23206;SDS011;11773;52.570;13.052;2023-01-28T14:42:42;0.40;;;0.40;;
23206;SDS011;11773;52.570;13.052;2023-01-28T14:46:24;0.40;;;0.40;;
23206;SDS011;11773;52.570;13.052;2023-01-28T14:48:22;0.30;;;0.30;;
23206;SDS011;11773;52.570;13.052;2023-01-28T14:53:56;0.30;;;0.30;;
23206;SDS011;11773;52.570;13.052;2023-01-28T14:56:46;0.40;;;0.40;;
23206;SDS011;11773;52.570;13.052;2023-01-28T14:59:37;0.30;;;0.30;;
23206;SDS011;11773;52.570;13.052;2023-01-28T15:02:23;0.47;;;0.40;;
23206;SDS011;11773;52.570;13.052;2023-01-28T15:05:05;0.40;;;0.40;;
23206;SDS011;11773;52.570;13.052;2023-01-28T15:07:38;0.70;;;0.40;;
23206;SDS011;11773;52.570;13.052;2023-01-28T15:10:16;0.30;;;0.30;;
23206;SDS011;11773;52.570;13.052;2023-01-28T15:13:12;0.37;;;0.37;;
23206;SDS011;11773;52.570;13.052;2023-01-28T15:15:40;0.40;;;0.40;;
23206;SDS011;11773;52.570;13.052;2023-01-28T15:18:16;0.43;;;0.43;;
23206;SDS011;11773;52.570;13.052;2023-01-28T15:20:50;0.40;;;0.40;;
23206;SDS011;11773;52.570;13.052;2023-01-28T15:23:37;0.30;;;0.30;;
23206;SDS011;11773;52.570;13.052;2023-01-28T15:26:06;0.50;;;0.50;;
23206;SDS011;11773;52.570;13.052;2023-01-28T15:28:42;0.40;;;0.40;;
23206;SDS011;11773;52.570;13.052;2023-01-28T15:31:21;0.40;;;0.40;;
23206;SDS011;11773;52.570;13.052;2023-01-28T15:33:57;0.30;;;0.30;;
23206;SDS011;11773;52.570;13.052;2023-01-28T15:36:42;0.37;;;0.37;;
23206;SDS011;11773;52.570;13.052;2023-01-28T15:39:19;0.40;;;0.40;;
23206;SDS011;11773;52.570;13.052;2023-01-28T15:41:56;0.33;;;0.33;;
23206;SDS011;11773;52.570;13.052;2023-01-28T15:44:32;0.30;;;0.30;;
23206;SDS011;11773;52.570;13.052;2023-01-28T15:47:16;1.13;;;0.33;;
23206;SDS011;11773;52.570;13.052;2023-01-28T15:49:52;0.30;;;0.30;;
23206;SDS011;11773;52.570;13.052;2023-01-28T15:52:31;0.30;;;0.30;;
23206;SDS011;11773;52.570;13.052;2023-01-28T15:55:04;0.37;;;0.37;;
23206;SDS011;11773;52.570;13.052;2023-01-28T15:57:36;0.20;;;0.20;;
23206;SDS011;11773;52.570;13.052;2023-01-28T16:02:42;0.30;;;0.30;;
23206;SDS011;11773;52.570;13.052;2023-01-28T16:05:26;0.30;;;0.30;;
23206;SDS011;11773;52.570;13.052;2023-01-28T16:08:02;0.40;;;0.40;;
23206;SDS011;11773;52.570;13.052;2023-01-28T16:10:38;0.30;;;0.30;;
23206;SDS011;11773;52.570;13.052;2023-01-28T16:13:13;0.30;;;0.30;;
23206;SDS011;11773;52.570;13.052;2023-01-28T16:15:46;0.20;;;0.20;;
23206;SDS011;11773;52.570;13.052;2023-01-28T16:18:37;0.30;;;0.30;;
23206;SDS011;11773;52.570;13.052;2023-01-28T16:21:03;0.40;;;0.40;;
23206;SDS011;11773;52.570;13.052;2023-01-28T16:23:38;0.50;;;0.50;;
23206;SDS011;11773;52.570;13.052;2023-01-28T16:26:24;0.50;;;0.50;;
23206;SDS011;11773;52.570;13.052;2023-01-28T16:28:52;0.27;;;0.27;;
23206;SDS011;11773;52.570;13.052;2023-01-28T16:31:21;0.30;;;0.30;;
23206;SDS011;11773;52.570;13.052;2023-01-28T16:33:51;0.30;;;0.30;;
23206;SDS011;11773;52.570;13.052;2023-01-28T16:36:20;0.50;;;0.50;;